Air Navigation Services of Czech Republic
Airport: LKTB Updated:  20.02.2017 21:03:20  UTC
 METAR LKTB 20.02. 21:00 ...
METAR LKTB 202100Z 21005KT 9999 -RA BKN040 OVC045 03/02 Q1014 NOSIG RMK REG QNH 1009=
 TAF LKTB 20.02. 17:00 ...
TAF LKTB 201700Z 2018/2200 23008KT 9999 BKN025      TEMPO 2021/2116 4000 -RA BR BKN010      PROB40 TEMPO 2100/2114 2000 RA BKN006      BECMG 2110/2112 29010KT=